Station Historical Data
Daily Summary for May 27, 2011 Units:  Both    English   Metric
« Previous Day
Next Day »
Daily Weekly Monthly Yearly Custom
  High: Low: Average:
Temperature: 74.6 °F /  23.7 °C 55.7 °F /  13.2 °C 64.7 °F /  18.2 °C
Dew Point: 61.5 °F /  16.4 °C 54.3 °F /  12.4 °C 57.4 °F /  14.1 °C
Humidity: 97% 61% 79%
Wind Speed: 6.0mph /  9.7km/h - 2mph /  3.2km/h
Wind Gust: 8.0mph /  12.9km/h - -
Wind- - West
Pressure: 29.93 in /  1013.4 hPa 29.84 in /  1010.4 hPa -
Precipitation: 0.00 in /  0 mm    
Historical Graphs
 
 
Tabular Data for May 27, 2011
Time Temperature Dew Point Pressure Wind Wind Speed Wind Gust Humidity Rainfall Rate (Hourly) Conditions
00:00 59.9 °F /  15.5 °C 57.0 °F /  13.9 °C 29.87in /  1011.4hPa Calm   2.0mph /  3.2km/h 90% 0.00in /  0mm
00:01 59.9 °F /  15.5 °C 57.0 °F /  13.9 °C 29.87in /  1011.4hPa Calm   2.0mph /  3.2km/h 90% 0.00in /  0mm
00:05 59.7 °F /  15.4 °C 57.1 °F /  13.9 °C 29.86in /  1011.1hPa NNW 1.0mph /  1.6km/h 1.0mph /  1.6km/h 91% 0.00in /  0mm
00:06 59.7 °F /  15.4 °C 57.1 °F /  13.9 °C 29.86in /  1011.1hPa NNW 1.0mph /  1.6km/h 1.0mph /  1.6km/h 91% 0.00in /  0mm
00:11 59.6 °F /  15.3 °C 57.0 °F /  13.9 °C 29.86in /  1011.1hPa NNW 2.0mph /  3.2km/h 2.0mph /  3.2km/h 91% 0.00in /  0mm
00:16 59.5 °F /  15.3 °C 56.9 °F /  13.8 °C 29.86in /  1011.1hPa NNW 1.0mph /  1.6km/h 1.0mph /  1.6km/h 91% 0.00in /  0mm
00:21 59.3 °F /  15.2 °C 56.7 °F /  13.7 °C 29.86in /  1011.1hPa Calm     91% 0.00in /  0mm
00:26 59.1 °F /  15.1 °C 56.8 °F /  13.8 °C 29.86in /  1011.1hPa NNW 1.0mph /  1.6km/h 1.0mph /  1.6km/h 92% 0.00in /  0mm
00:27 59.0 °F /  15 °C 56.7 °F /  13.7 °C 29.86in /  1011.1hPa Calm   1.0mph /  1.6km/h 92% 0.00in /  0mm
00:31 58.9 °F /  14.9 °C 56.6 °F /  13.7 °C 29.86in /  1011.1hPa Calm   1.0mph /  1.6km/h 92% 0.00in /  0mm
00:32 58.9 °F /  14.9 °C 56.6 °F /  13.7 °C 29.86in /  1011.1hPa Calm   1.0mph /  1.6km/h 92% 0.00in /  0mm
00:36 58.7 °F /  14.8 °C 56.7 °F /  13.7 °C 29.86in /  1011.1hPa NNW 1.0mph /  1.6km/h 2.0mph /  3.2km/h 93% 0.00in /  0mm
00:37 58.7 °F /  14.8 °C 56.7 °F /  13.7 °C 29.86in /  1011.1hPa Calm   1.0mph /  1.6km/h 93% 0.00in /  0mm
00:42 58.6 °F /  14.8 °C 56.6 °F /  13.7 °C 29.86in /  1011.1hPa NW 3.0mph /  4.8km/h 3.0mph /  4.8km/h 93% 0.00in /  0mm
00:47 58.6 °F /  14.8 °C 56.6 °F /  13.7 °C 29.86in /  1011.1hPa NW 1.0mph /  1.6km/h 5.0mph /  8km/h 93% 0.00in /  0mm
00:52 58.5 °F /  14.7 °C 56.5 °F /  13.6 °C 29.86in /  1011.1hPa WNW 2.0mph /  3.2km/h 3.0mph /  4.8km/h 93% 0.00in /  0mm
00:54 58.4 °F /  14.7 °C 56.4 °F /  13.6 °C 29.86in /  1011.1hPa NW 2.0mph /  3.2km/h 3.0mph /  4.8km/h 93% 0.00in /  0mm
00:57 58.3 °F /  14.6 °C 56.3 °F /  13.5 °C 29.86in /  1011.1hPa WNW 5.0mph /  8km/h 5.0mph /  8km/h 93% 0.00in /  0mm
00:59 58.4 °F /  14.7 °C 56.7 °F /  13.7 °C 29.86in /  1011.1hPa WNW 5.0mph /  8km/h 6.0mph /  9.7km/h 94% 0.00in /  0mm
01:04 58.6 °F /  14.8 °C 56.9 °F /  13.8 °C 29.86in /  1011.1hPa WNW 5.0mph /  8km/h 7.0mph /  11.3km/h 94% 0.00in /  0mm
01:09 58.7 °F /  14.8 °C 57.0 °F /  13.9 °C 29.86in /  1011.1hPa WNW 6.0mph /  9.7km/h 6.0mph /  9.7km/h 94% 0.00in /  0mm
01:14 58.8 °F /  14.9 °C 56.8 °F /  13.8 °C 29.86in /  1011.1hPa WNW 5.0mph /  8km/h 7.0mph /  11.3km/h 93% 0.00in /  0mm
01:19 58.8 °F /  14.9 °C 56.8 °F /  13.8 °C 29.85in /  1010.7hPa NW 2.0mph /  3.2km/h 4.0mph /  6.4km/h 93% 0.00in /  0mm
01:25 58.8 °F /  14.9 °C 56.8 °F /  13.8 °C 29.85in /  1010.7hPa WNW 4.0mph /  6.4km/h 6.0mph /  9.7km/h 93% 0.00in /  0mm
01:26 58.8 °F /  14.9 °C 56.8 °F /  13.8 °C 29.85in /  1010.7hPa NW 3.0mph /  4.8km/h 6.0mph /  9.7km/h 93% 0.00in /  0mm
01:30 58.8 °F /  14.9 °C 56.8 °F /  13.8 °C 29.85in /  1010.7hPa WNW 2.0mph /  3.2km/h 5.0mph /  8km/h 93% 0.00in /  0mm
01:31 58.8 °F /  14.9 °C 56.8 °F /  13.8 °C 29.85in /  1010.7hPa WNW 3.0mph /  4.8km/h 5.0mph /  8km/h 93% 0.00in /  0mm
01:35 58.8 °F /  14.9 °C 56.8 °F /  13.8 °C 29.85in /  1010.7hPa NW 3.0mph /  4.8km/h 3.0mph /  4.8km/h 93% 0.00in /  0mm
01:36 58.7 °F /  14.8 °C 56.7 °F /  13.7 °C 29.85in /  1010.7hPa WNW 1.0mph /  1.6km/h 3.0mph /  4.8km/h 93% 0.00in /  0mm
01:41 58.7 °F /  14.8 °C 56.7 °F /  13.7 °C 29.85in /  1010.7hPa NW 3.0mph /  4.8km/h 4.0mph /  6.4km/h 93% 0.00in /  0mm
01:46 58.7 °F /  14.8 °C 56.7 °F /  13.7 °C 29.85in /  1010.7hPa NW 1.0mph /  1.6km/h 4.0mph /  6.4km/h 93% 0.00in /  0mm
01:51 58.7 °F /  14.8 °C 56.7 °F /  13.7 °C 29.85in /  1010.7hPa NW 4.0mph /  6.4km/h 4.0mph /  6.4km/h 93% 0.00in /  0mm
01:56 58.6 °F /  14.8 °C 56.6 °F /  13.7 °C 29.85in /  1010.7hPa NW 2.0mph /  3.2km/h 6.0mph /  9.7km/h 93% 0.00in /  0mm
01:57 58.6 °F /  14.8 °C 56.6 °F /  13.7 °C 29.85in /  1010.7hPa NW 2.0mph /  3.2km/h 6.0mph /  9.7km/h 93% 0.00in /  0mm
01:58 58.5 °F /  14.7 °C 56.5 °F /  13.6 °C 29.85in /  1010.7hPa NW 2.0mph /  3.2km/h 3.0mph /  4.8km/h 93% 0.00in /  0mm
02:01 58.4 °F /  14.7 °C 56.4 °F /  13.6 °C 29.85in /  1010.7hPa NNW 4.0mph /  6.4km/h 5.0mph /  8km/h 93% 0.00in /  0mm
02:06 58.2 °F /  14.6 °C 56.2 °F /  13.4 °C 29.84in /  1010.4hPa NNW 1.0mph /  1.6km/h 5.0mph /  8km/h 93% 0.00in /  0mm
02:11 58.0 °F /  14.4 °C 56.0 °F /  13.3 °C 29.85in /  1010.7hPa NW 1.0mph /  1.6km/h 2.0mph /  3.2km/h 93% 0.00in /  0mm
02:16 57.8 °F /  14.3 °C 55.8 °F /  13.2 °C 29.85in /  1010.7hPa NW 1.0mph /  1.6km/h 1.0mph /  1.6km/h 93% 0.00in /  0mm
02:21 57.6 °F /  14.2 °C 55.6 °F /  13.1 °C 29.85in /  1010.7hPa Calm   1.0mph /  1.6km/h 93% 0.00in /  0mm
02:26 57.5 °F /  14.2 °C 55.8 °F /  13.2 °C 29.85in /  1010.7hPa Calm     94% 0.00in /  0mm
02:27 57.4 °F /  14.1 °C 55.7 °F /  13.2 °C 29.85in /  1010.7hPa Calm     94% 0.00in /  0mm
02:32 57.4 °F /  14.1 °C 55.7 °F /  13.2 °C 29.85in /  1010.7hPa Calm     94% 0.00in /  0mm
02:33 57.3 °F /  14.1 °C 55.6 °F /  13.1 °C 29.85in /  1010.7hPa Calm     94% 0.00in /  0mm
02:37 57.2 °F /  14 °C 55.5 °F /  13.1 °C 29.85in /  1010.7hPa Calm     94% 0.00in /  0mm
02:42 57.1 °F /  13.9 °C 55.4 °F /  13 °C 29.85in /  1010.7hPa Calm   1.0mph /  1.6km/h 94% 0.00in /  0mm
02:47 57.0 °F /  13.9 °C 55.3 °F /  12.9 °C 29.86in /  1011.1hPa NE 1.0mph /  1.6km/h 2.0mph /  3.2km/h 94% 0.00in /  0mm
02:52 56.9 °F /  13.8 °C 55.2 °F /  12.9 °C 29.86in /  1011.1hPa Calm   1.0mph /  1.6km/h 94% 0.00in /  0mm
02:57 56.9 °F /  13.8 °C 55.5 °F /  13.1 °C 29.86in /  1011.1hPa Calm     95% 0.00in /  0mm
02:58 56.9 °F /  13.8 °C 55.5 °F /  13.1 °C 29.86in /  1011.1hPa NE 1.0mph /  1.6km/h 2.0mph /  3.2km/h 95% 0.00in /  0mm
03:03 57.0 °F /  13.9 °C 55.6 °F /  13.1 °C 29.86in /  1011.1hPa NE 1.0mph /  1.6km/h 1.0mph /  1.6km/h 95% 0.00in /  0mm
03:05 57.0 °F /  13.9 °C 55.6 °F /  13.1 °C 29.86in /  1011.1hPa Calm   1.0mph /  1.6km/h 95% 0.00in /  0mm
03:08 57.0 °F /  13.9 °C 55.3 °F /  12.9 °C 29.87in /  1011.4hPa Calm     94% 0.00in /  0mm
03:13 56.6 °F /  13.7 °C 54.9 °F /  12.7 °C 29.87in /  1011.4hPa NE 1.0mph /  1.6km/h 1.0mph /  1.6km/h 94% 0.00in /  0mm
03:18 56.3 °F /  13.5 °C 54.9 °F /  12.7 °C 29.87in /  1011.4hPa NNE 1.0mph /  1.6km/h 1.0mph /  1.6km/h 95% 0.00in /  0mm
03:23 56.1 °F /  13.4 °C 55.0 °F /  12.8 °C 29.87in /  1011.4hPa Calm   1.0mph /  1.6km/h 96% 0.00in /  0mm
03:24 56.1 °F /  13.4 °C 55.0 °F /  12.8 °C 29.87in /  1011.4hPa NNE 1.0mph /  1.6km/h 1.0mph /  1.6km/h 96% 0.00in /  0mm
03:29 56.2 °F /  13.4 °C 55.1 °F /  12.8 °C 29.88in /  1011.7hPa Calm     96% 0.00in /  0mm
03:34 56.3 °F /  13.5 °C 55.2 °F /  12.9 °C 29.88in /  1011.7hPa Calm     96% 0.00in /  0mm
03:39 56.5 °F /  13.6 °C 55.7 °F /  13.2 °C 29.88in /  1011.7hPa Calm     97% 0.00in /  0mm
03:44 56.6 °F /  13.7 °C 55.8 °F /  13.2 °C 29.87in /  1011.4hPa NE 2.0mph /  3.2km/h 3.0mph /  4.8km/h 97% 0.00in /  0mm
03:49 56.9 °F /  13.8 °C 55.8 °F /  13.2 °C 29.87in /  1011.4hPa Calm   1.0mph /  1.6km/h 96% 0.00in /  0mm
03:54 57.1 °F /  13.9 °C 56.0 °F /  13.3 °C 29.87in /  1011.4hPa Calm     96% 0.00in /  0mm
03:55 57.1 °F /  13.9 °C 56.0 °F /  13.3 °C 29.87in /  1011.4hPa Calm     96% 0.00in /  0mm
04:00 57.1 °F /  13.9 °C 55.7 °F /  13.2 °C 29.87in /  1011.4hPa NW 1.0mph /  1.6km/h 2.0mph /  3.2km/h 95% 0.00in /  0mm
04:05 57.0 °F /  13.9 °C 55.6 °F /  13.1 °C 29.87in /  1011.4hPa NW 1.0mph /  1.6km/h 2.0mph /  3.2km/h 95% 0.00in /  0mm
04:10 57.0 °F /  13.9 °C 55.6 °F /  13.1 °C 29.88in /  1011.7hPa NW 2.0mph /  3.2km/h 2.0mph /  3.2km/h 95% 0.00in /  0mm
04:15 57.1 °F /  13.9 °C 56.0 °F /  13.3 °C 29.88in /  1011.7hPa NNW 1.0mph /  1.6km/h 2.0mph /  3.2km/h 96% 0.00in /  0mm
04:20 57.2 °F /  14 °C 55.8 °F /  13.2 °C 29.87in /  1011.4hPa NNW 1.0mph /  1.6km/h 4.0mph /  6.4km/h 95% 0.00in /  0mm
04:25 57.2 °F /  14 °C 55.8 °F /  13.2 °C 29.87in /  1011.4hPa NNW 2.0mph /  3.2km/h 2.0mph /  3.2km/h 95% 0.00in /  0mm
04:26 57.2 °F /  14 °C 55.8 °F /  13.2 °C 29.87in /  1011.4hPa NNW 2.0mph /  3.2km/h 2.0mph /  3.2km/h 95% 0.00in /  0mm
04:27 57.2 °F /  14 °C 55.8 °F /  13.2 °C 29.87in /  1011.4hPa NNW 1.0mph /  1.6km/h 2.0mph /  3.2km/h 95% 0.00in /  0mm
04:31 57.2 °F /  14 °C 55.8 °F /  13.2 °C 29.87in /  1011.4hPa NNW 1.0mph /  1.6km/h 1.0mph /  1.6km/h 95% 0.00in /  0mm
04:32 57.2 °F /  14 °C 55.8 °F /  13.2 °C 29.87in /  1011.4hPa NW 1.0mph /  1.6km/h 1.0mph /  1.6km/h 95% 0.00in /  0mm
04:33 57.2 °F /  14 °C 55.8 °F /  13.2 °C 29.87in /  1011.4hPa WNW 1.0mph /  1.6km/h 1.0mph /  1.6km/h 95% 0.00in /  0mm
04:37 57.2 °F /  14 °C 55.8 °F /  13.2 °C 29.87in /  1011.4hPa WNW 1.0mph /  1.6km/h 2.0mph /  3.2km/h 95% 0.00in /  0mm
04:42 57.0 °F /  13.9 °C 55.6 °F /  13.1 °C 29.87in /  1011.4hPa NW 2.0mph /  3.2km/h 3.0mph /  4.8km/h 95% 0.00in /  0mm
04:47 57.0 °F /  13.9 °C 55.6 °F /  13.1 °C 29.88in /  1011.7hPa WNW 2.0mph /  3.2km/h 3.0mph /  4.8km/h 95% 0.00in /  0mm
04:52 56.9 °F /  13.8 °C 55.5 °F /  13.1 °C 29.88in /  1011.7hPa NW 3.0mph /  4.8km/h 4.0mph /  6.4km/h 95% 0.00in /  0mm
04:53 56.8 °F /  13.8 °C 55.4 °F /  13 °C 29.88in /  1011.7hPa NW 2.0mph /  3.2km/h 4.0mph /  6.4km/h 95% 0.00in /  0mm
04:54 56.8 °F /  13.8 °C 55.4 °F /  13 °C 29.88in /  1011.7hPa WNW 2.0mph /  3.2km/h 4.0mph /  6.4km/h 95% 0.00in /  0mm
04:58 56.6 °F /  13.7 °C 55.2 °F /  12.9 °C 29.88in /  1011.7hPa NW 2.0mph /  3.2km/h 3.0mph /  4.8km/h 95% 0.00in /  0mm
04:59 56.6 °F /  13.7 °C 55.2 °F /  12.9 °C 29.88in /  1011.7hPa NW 1.0mph /  1.6km/h 3.0mph /  4.8km/h 95% 0.00in /  0mm
05:04 56.3 °F /  13.5 °C 54.9 °F /  12.7 °C 29.88in /  1011.7hPa NNW 1.0mph /  1.6km/h 2.0mph /  3.2km/h 95% 0.00in /  0mm
05:09 56.2 °F /  13.4 °C 54.8 °F /  12.7 °C 29.88in /  1011.7hPa NW 2.0mph /  3.2km/h 2.0mph /  3.2km/h 95% 0.00in /  0mm
05:14 56.0 °F /  13.3 °C 54.6 °F /  12.6 °C 29.88in /  1011.7hPa NW 2.0mph /  3.2km/h 3.0mph /  4.8km/h 95% 0.00in /  0mm
05:19 55.9 °F /  13.3 °C 54.5 °F /  12.5 °C 29.88in /  1011.7hPa NW 1.0mph /  1.6km/h 2.0mph /  3.2km/h 95% 0.00in /  0mm
05:20 55.8 °F /  13.2 °C 54.4 °F /  12.4 °C 29.88in /  1011.7hPa NW 1.0mph /  1.6km/h 2.0mph /  3.2km/h 95% 0.00in /  0mm
05:24 55.7 °F /  13.2 °C 54.3 °F /  12.4 °C 29.88in /  1011.7hPa NW 2.0mph /  3.2km/h 2.0mph /  3.2km/h 95% 0.00in /  0mm
05:29 55.8 °F /  13.2 °C 54.7 °F /  12.6 °C 29.88in /  1011.7hPa NNW 1.0mph /  1.6km/h 3.0mph /  4.8km/h 96% 0.00in /  0mm
05:31 55.8 °F /  13.2 °C 54.7 °F /  12.6 °C 29.88in /  1011.7hPa NW 2.0mph /  3.2km/h 3.0mph /  4.8km/h 96% 0.00in /  0mm
05:32 55.9 °F /  13.3 °C 54.8 °F /  12.7 °C 29.88in /  1011.7hPa NNW 2.0mph /  3.2km/h 3.0mph /  4.8km/h 96% 0.00in /  0mm
05:34 55.9 °F /  13.3 °C 54.8 °F /  12.7 °C 29.88in /  1011.7hPa NW 3.0mph /  4.8km/h 4.0mph /  6.4km/h 96% 0.00in /  0mm
05:36 56.0 °F /  13.3 °C 54.6 °F /  12.6 °C 29.88in /  1011.7hPa NW 3.0mph /  4.8km/h 4.0mph /  6.4km/h 95% 0.00in /  0mm
05:41 56.1 °F /  13.4 °C 54.4 °F /  12.4 °C 29.88in /  1011.7hPa NW 1.0mph /  1.6km/h 4.0mph /  6.4km/h 94% 0.00in /  0mm
05:46 56.2 °F /  13.4 °C 54.5 °F /  12.5 °C 29.89in /  1012.1hPa NNW 1.0mph /  1.6km/h 3.0mph /  4.8km/h 94% 0.00in /  0mm
05:51 56.3 °F /  13.5 °C 54.3 °F /  12.4 °C 29.89in /  1012.1hPa NNW 1.0mph /  1.6km/h 2.0mph /  3.2km/h 93% 0.00in /  0mm
05:53 56.3 °F /  13.5 °C 54.3 °F /  12.4 °C 29.89in /  1012.1hPa NW 1.0mph /  1.6km/h 1.0mph /  1.6km/h 93% 0.00in /  0mm
05:58 56.4 °F /  13.6 °C 54.7 °F /  12.6 °C 29.89in /  1012.1hPa NW 1.0mph /  1.6km/h 1.0mph /  1.6km/h 94% 0.00in /  0mm
06:00 56.4 °F /  13.6 °C 54.7 °F /  12.6 °C 29.89in /  1012.1hPa Calm   1.0mph /  1.6km/h 94% 0.00in /  0mm
06:05 56.5 °F /  13.6 °C 54.8 °F /  12.7 °C 29.89in /  1012.1hPa Calm   1.0mph /  1.6km/h 94% 0.00in /  0mm
06:10 56.5 °F /  13.6 °C 54.8 °F /  12.7 °C 29.89in /  1012.1hPa NW 2.0mph /  3.2km/h 2.0mph /  3.2km/h 94% 0.00in /  0mm
06:15 56.5 °F /  13.6 °C 54.8 °F /  12.7 °C 29.89in /  1012.1hPa NW 3.0mph /  4.8km/h 3.0mph /  4.8km/h 94% 0.00in /  0mm
06:20 56.5 °F /  13.6 °C 54.8 °F /  12.7 °C 29.90in /  1012.4hPa WNW 2.0mph /  3.2km/h 4.0mph /  6.4km/h 94% 0.00in /  0mm
06:25 56.5 °F /  13.6 °C 54.8 °F /  12.7 °C 29.89in /  1012.1hPa NW 2.0mph /  3.2km/h 2.0mph /  3.2km/h 94% 0.00in /  0mm
06:30 56.4 °F /  13.6 °C 54.7 °F /  12.6 °C 29.90in /  1012.4hPa NW 1.0mph /  1.6km/h 2.0mph /  3.2km/h 94% 0.00in /  0mm
06:31 56.4 °F /  13.6 °C 54.7 °F /  12.6 °C 29.90in /  1012.4hPa NW 1.0mph /  1.6km/h 2.0mph /  3.2km/h 94% 0.00in /  0mm
06:32 56.4 °F /  13.6 °C 54.7 °F /  12.6 °C 29.90in /  1012.4hPa Calm   2.0mph /  3.2km/h 94% 0.00in /  0mm
06:35 56.4 °F /  13.6 °C 54.7 °F /  12.6 °C 29.90in /  1012.4hPa NW 1.0mph /  1.6km/h 1.0mph /  1.6km/h 94% 0.00in /  0mm
06:38 56.5 °F /  13.6 °C 54.8 °F /  12.7 °C 29.90in /  1012.4hPa WNW 2.0mph /  3.2km/h 3.0mph /  4.8km/h 94% 0.00in /  0mm
06:40 56.5 °F /  13.6 °C 54.8 °F /  12.7 °C 29.90in /  1012.4hPa WNW 1.0mph /  1.6km/h 3.0mph /  4.8km/h 94% 0.00in /  0mm
06:45 56.5 °F /  13.6 °C 54.8 °F /  12.7 °C 29.90in /  1012.4hPa WNW 3.0mph /  4.8km/h 3.0mph /  4.8km/h 94% 0.00in /  0mm
06:50 56.5 °F /  13.6 °C 54.8 °F /  12.7 °C 29.90in /  1012.4hPa WNW 3.0mph /  4.8km/h 3.0mph /  4.8km/h 94% 0.00in /  0mm
06:51 56.5 °F /  13.6 °C 54.8 °F /  12.7 °C 29.90in /  1012.4hPa WNW 3.0mph /  4.8km/h 3.0mph /  4.8km/h 94% 0.00in /  0mm
06:53 56.5 °F /  13.6 °C 54.8 °F /  12.7 °C 29.90in /  1012.4hPa WNW 1.0mph /  1.6km/h 3.0mph /  4.8km/h 94% 0.00in /  0mm
06:56 56.5 °F /  13.6 °C 55.1 °F /  12.8 °C 29.91in /  1012.8hPa WNW 2.0mph /  3.2km/h 3.0mph /  4.8km/h 95% 0.00in /  0mm
06:57 56.5 °F /  13.6 °C 55.1 °F /  12.8 °C 29.91in /  1012.8hPa WNW 1.0mph /  1.6km/h 3.0mph /  4.8km/h 95% 0.00in /  0mm
06:58 56.5 °F /  13.6 °C 55.1 °F /  12.8 °C 29.91in /  1012.8hPa WNW 1.0mph /  1.6km/h 3.0mph /  4.8km/h 95% 0.00in /  0mm
07:03 56.5 °F /  13.6 °C 55.1 °F /  12.8 °C 29.91in /  1012.8hPa WNW 2.0mph /  3.2km/h 3.0mph /  4.8km/h 95% 0.00in /  0mm
07:08 56.5 °F /  13.6 °C 55.1 °F /  12.8 °C 29.91in /  1012.8hPa NW 2.0mph /  3.2km/h 3.0mph /  4.8km/h 95% 0.00in /  0mm
07:13 56.5 °F /  13.6 °C 55.1 °F /  12.8 °C 29.92in /  1013.1hPa WNW 4.0mph /  6.4km/h 5.0mph /  8km/h 95% 0.00in /  0mm
07:18 56.5 °F /  13.6 °C 55.1 °F /  12.8 °C 29.92in /  1013.1hPa NW 5.0mph /  8km/h 5.0mph /  8km/h 95% 0.00in /  0mm
07:19 56.5 °F /  13.6 °C 55.1 °F /  12.8 °C 29.92in /  1013.1hPa NW 4.0mph /  6.4km/h 5.0mph /  8km/h 95% 0.00in /  0mm
07:24 56.5 °F /  13.6 °C 55.1 °F /  12.8 °C 29.92in /  1013.1hPa WNW 4.0mph /  6.4km/h 4.0mph /  6.4km/h 95% 0.00in /  0mm
07:29 56.5 °F /  13.6 °C 55.1 °F /  12.8 °C 29.92in /  1013.1hPa WNW 4.0mph /  6.4km/h 4.0mph /  6.4km/h 95% 0.00in /  0mm
07:34 56.6 °F /  13.7 °C 55.2 °F /  12.9 °C 29.91in /  1012.8hPa WNW 3.0mph /  4.8km/h 4.0mph /  6.4km/h 95% 0.00in /  0mm
07:35 56.6 °F /  13.7 °C 55.2 °F /  12.9 °C 29.91in /  1012.8hPa NW 2.0mph /  3.2km/h 4.0mph /  6.4km/h 95% 0.00in /  0mm
07:39 56.7 °F /  13.7 °C 55.3 °F /  12.9 °C 29.91in /  1012.8hPa WNW 2.0mph /  3.2km/h 5.0mph /  8km/h 95% 0.00in /  0mm
07:44 56.7 °F /  13.7 °C 55.3 °F /  12.9 °C 29.91in /  1012.8hPa NNW 2.0mph /  3.2km/h 5.0mph /  8km/h 95% 0.00in /  0mm
07:49 56.8 °F /  13.8 °C 55.1 °F /  12.8 °C 29.92in /  1013.1hPa NW 3.0mph /  4.8km/h 5.0mph /  8km/h 94% 0.00in /  0mm
07:54 56.9 °F /  13.8 °C 55.2 °F /  12.9 °C 29.92in /  1013.1hPa NW 2.0mph /  3.2km/h 4.0mph /  6.4km/h 94% 0.00in /  0mm
07:58 57.0 °F /  13.9 °C 55.6 °F /  13.1 °C 29.92in /  1013.1hPa NW 2.0mph /  3.2km/h 4.0mph /  6.4km/h 95% 0.00in /  0mm
07:59 57.0 °F /  13.9 °C 55.3 °F /  12.9 °C 29.92in /  1013.1hPa NNW 2.0mph /  3.2km/h 4.0mph /  6.4km/h 94% 0.00in /  0mm
08:04 57.1 °F /  13.9 °C 55.4 °F /  13 °C 29.92in /  1013.1hPa NNW 3.0mph /  4.8km/h 4.0mph /  6.4km/h 94% 0.00in /  0mm
08:09 57.4 °F /  14.1 °C 56.0 °F /  13.3 °C 29.92in /  1013.1hPa West 1.0mph /  1.6km/h 3.0mph /  4.8km/h 95% 0.00in /  0mm
08:14 57.5 °F /  14.2 °C 55.8 °F /  13.2 °C 29.92in /  1013.1hPa WNW 4.0mph /  6.4km/h 6.0mph /  9.7km/h 94% 0.00in /  0mm
08:19 57.5 °F /  14.2 °C 55.5 °F /  13.1 °C 29.92in /  1013.1hPa NNW 5.0mph /  8km/h 5.0mph /  8km/h 93% 0.00in /  0mm
08:24 57.5 °F /  14.2 °C 55.5 °F /  13.1 °C 29.92in /  1013.1hPa NNW 4.0mph /  6.4km/h 6.0mph /  9.7km/h 93% 0.00in /  0mm
08:25 57.5 °F /  14.2 °C 55.2 °F /  12.9 °C 29.92in /  1013.1hPa NW 3.0mph /  4.8km/h 6.0mph /  9.7km/h 92% 0.00in /  0mm
08:29 57.7 °F /  14.3 °C 55.4 °F /  13 °C 29.92in /  1013.1hPa WNW 4.0mph /  6.4km/h 6.0mph /  9.7km/h 92% 0.00in /  0mm
08:30 57.7 °F /  14.3 °C 55.4 °F /  13 °C 29.92in /  1013.1hPa WNW 4.0mph /  6.4km/h 6.0mph /  9.7km/h 92% 0.00in /  0mm
08:35 57.7 °F /  14.3 °C 55.4 °F /  13 °C 29.92in /  1013.1hPa NNW 3.0mph /  4.8km/h 5.0mph /  8km/h 92% 0.00in /  0mm
08:36 57.8 °F /  14.3 °C 55.5 °F /  13.1 °C 29.92in /  1013.1hPa NW 2.0mph /  3.2km/h 4.0mph /  6.4km/h 92% 0.00in /  0mm
08:41 57.9 °F /  14.4 °C 55.6 °F /  13.1 °C 29.93in /  1013.4hPa NW 2.0mph /  3.2km/h 4.0mph /  6.4km/h 92% 0.00in /  0mm
08:46 57.9 °F /  14.4 °C 55.3 °F /  12.9 °C 29.93in /  1013.4hPa NW 3.0mph /  4.8km/h 6.0mph /  9.7km/h 91% 0.00in /  0mm
08:51 57.8 °F /  14.3 °C 54.9 °F /  12.7 °C 29.93in /  1013.4hPa NNW 4.0mph /  6.4km/h 5.0mph /  8km/h 90% 0.00in /  0mm
08:52 57.8 °F /  14.3 °C 54.9 °F /  12.7 °C 29.93in /  1013.4hPa NW 3.0mph /  4.8km/h 5.0mph /  8km/h 90% 0.00in /  0mm
08:57 57.9 °F /  14.4 °C 55.3 °F /  12.9 °C 29.93in /  1013.4hPa NW 3.0mph /  4.8km/h 4.0mph /  6.4km/h 91% 0.00in /  0mm
08:58 58.0 °F /  14.4 °C 55.4 °F /  13 °C 29.93in /  1013.4hPa NW 1.0mph /  1.6km/h 4.0mph /  6.4km/h 91% 0.00in /  0mm
09:02 58.0 °F /  14.4 °C 55.4 °F /  13 °C 29.93in /  1013.4hPa NW 3.0mph /  4.8km/h 4.0mph /  6.4km/h 91% 0.00in /  0mm
09:07 58.2 °F /  14.6 °C 55.6 °F /  13.1 °C 29.93in /  1013.4hPa NNW 3.0mph /  4.8km/h 6.0mph /  9.7km/h 91% 0.00in /  0mm
09:13 58.3 °F /  14.6 °C 55.4 °F /  13 °C 29.93in /  1013.4hPa NNW 4.0mph /  6.4km/h 5.0mph /  8km/h 90% 0.00in /  0mm
09:18 58.7 °F /  14.8 °C 55.8 °F /  13.2 °C 29.93in /  1013.4hPa NNW 2.0mph /  3.2km/h 4.0mph /  6.4km/h 90% 0.00in /  0mm
09:23 59.0 °F /  15 °C 56.1 °F /  13.4 °C 29.93in /  1013.4hPa NNW 3.0mph /  4.8km/h 3.0mph /  4.8km/h 90% 0.00in /  0mm
09:28 59.3 °F /  15.2 °C 56.7 °F /  13.7 °C 29.93in /  1013.4hPa WNW 2.0mph /  3.2km/h 3.0mph /  4.8km/h 91% 0.00in /  0mm
09:29 59.3 °F /  15.2 °C 56.1 °F /  13.4 °C 29.93in /  1013.4hPa WNW 2.0mph /  3.2km/h 3.0mph /  4.8km/h 89% 0.00in /  0mm
09:30 59.3 °F /  15.2 °C 56.1 °F /  13.4 °C 29.93in /  1013.4hPa NW 3.0mph /  4.8km/h 3.0mph /  4.8km/h 89% 0.00in /  0mm
09:33 59.3 °F /  15.2 °C 56.1 °F /  13.4 °C 29.93in /  1013.4hPa WNW 2.0mph /  3.2km/h 4.0mph /  6.4km/h 89% 0.00in /  0mm
09:35 59.3 °F /  15.2 °C 55.8 °F /  13.2 °C 29.93in /  1013.4hPa WNW 2.0mph /  3.2km/h 4.0mph /  6.4km/h 88% 0.00in /  0mm
09:36 59.3 °F /  15.2 °C 55.8 °F /  13.2 °C 29.93in /  1013.4hPa WNW 2.0mph /  3.2km/h 4.0mph /  6.4km/h 88% 0.00in /  0mm
09:38 59.3 °F /  15.2 °C 55.8 °F /  13.2 °C 29.93in /  1013.4hPa NNW 4.0mph /  6.4km/h 4.0mph /  6.4km/h 88% 0.00in /  0mm
09:41 59.2 °F /  15.1 °C 55.7 °F /  13.2 °C 29.93in /  1013.4hPa WNW 2.0mph /  3.2km/h 4.0mph /  6.4km/h 88% 0.00in /  0mm
09:43 59.2 °F /  15.1 °C 55.3 °F /  12.9 °C 29.93in /  1013.4hPa NW 2.0mph /  3.2km/h 4.0mph /  6.4km/h 87% 0.00in /  0mm
09:48 59.3 °F /  15.2 °C 55.4 °F /  13 °C 29.93in /  1013.4hPa West 2.0mph /  3.2km/h 3.0mph /  4.8km/h 87% 0.00in /  0mm
09:54 59.4 °F /  15.2 °C 55.8 °F /  13.2 °C 29.93in /  1013.4hPa NNW 1.0mph /  1.6km/h 3.0mph /  4.8km/h 88% 0.00in /  0mm
09:57 59.5 °F /  15.3 °C 55.6 °F /  13.1 °C 29.93in /  1013.4hPa NNW 2.0mph /  3.2km/h 2.0mph /  3.2km/h 87% 0.00in /  0mm
09:59 59.6 °F /  15.3 °C 55.7 °F /  13.2 °C 29.93in /  1013.4hPa WNW 3.0mph /  4.8km/h 3.0mph /  4.8km/h 87% 0.00in /  0mm
10:04 59.8 °F /  15.4 °C 55.3 °F /  12.9 °C 29.93in /  1013.4hPa North 2.0mph /  3.2km/h 4.0mph /  6.4km/h 85% 0.00in /  0mm
10:09 60.0 °F /  15.6 °C 55.5 °F /  13.1 °C 29.93in /  1013.4hPa NE 4.0mph /  6.4km/h 5.0mph /  8km/h 85% 0.00in /  0mm
10:14 60.1 °F /  15.6 °C 54.9 °F /  12.7 °C 29.93in /  1013.4hPa ENE 2.0mph /  3.2km/h 4.0mph /  6.4km/h 83% 0.00in /  0mm
10:20 60.3 °F /  15.7 °C 55.5 °F /  13.1 °C 29.93in /  1013.4hPa NW 4.0mph /  6.4km/h 4.0mph /  6.4km/h 84% 0.00in /  0mm
10:25 60.4 °F /  15.8 °C 55.5 °F /  13.1 °C 29.93in /  1013.4hPa NW 2.0mph /  3.2km/h 4.0mph /  6.4km/h 84% 0.00in /  0mm
10:27 60.5 °F /  15.8 °C 55.3 °F /  12.9 °C 29.93in /  1013.4hPa North 2.0mph /  3.2km/h 3.0mph /  4.8km/h 83% 0.00in /  0mm
10:30 60.6 °F /  15.9 °C 55.8 °F /  13.2 °C 29.93in /  1013.4hPa North 5.0mph /  8km/h 5.0mph /  8km/h 84% 0.00in /  0mm
10:31 60.6 °F /  15.9 °C 55.8 °F /  13.2 °C 29.93in /  1013.4hPa NNE 4.0mph /  6.4km/h 5.0mph /  8km/h 84% 0.00in /  0mm
10:32 60.6 °F /  15.9 °C 55.8 °F /  13.2 °C 29.93in /  1013.4hPa NNW 2.0mph /  3.2km/h 5.0mph /  8km/h 84% 0.00in /  0mm
10:36 60.6 °F /  15.9 °C 55.4 °F /  13 °C 29.93in /  1013.4hPa NNW 2.0mph /  3.2km/h 3.0mph /  4.8km/h 83% 0.00in /  0mm
10:37 60.6 °F /  15.9 °C 55.4 °F /  13 °C 29.93in /  1013.4hPa NNW 2.0mph /  3.2km/h 3.0mph /  4.8km/h 83% 0.00in /  0mm
10:42 60.6 °F /  15.9 °C 55.8 °F /  13.2 °C 29.93in /  1013.4hPa NW 2.0mph /  3.2km/h 3.0mph /  4.8km/h 84% 0.00in /  0mm
10:43 60.6 °F /  15.9 °C 55.8 °F /  13.2 °C 29.93in /  1013.4hPa North 2.0mph /  3.2km/h 3.0mph /  4.8km/h 84% 0.00in /  0mm
10:48 60.8 °F /  16 °C 55.6 °F /  13.1 °C 29.92in /  1013.1hPa NE 4.0mph /  6.4km/h 4.0mph /  6.4km/h 83% 0.00in /  0mm
10:53 60.9 °F /  16.1 °C 55.4 °F /  13 °C 29.92in /  1013.1hPa NNE 3.0mph /  4.8km/h 4.0mph /  6.4km/h 82% 0.00in /  0mm
10:54 60.9 °F /  16.1 °C 55.4 °F /  13 °C 29.92in /  1013.1hPa NNW 1.0mph /  1.6km/h 3.0mph /  4.8km/h 82% 0.00in /  0mm
10:58 61.2 °F /  16.2 °C 56.0 °F /  13.3 °C 29.92in /  1013.1hPa WNW 1.0mph /  1.6km/h 3.0mph /  4.8km/h 83% 0.00in /  0mm
10:59 61.3 °F /  16.3 °C 55.8 °F /  13.2 °C 29.92in /  1013.1hPa WNW 2.0mph /  3.2km/h 2.0mph /  3.2km/h 82% 0.00in /  0mm
11:04 61.4 °F /  16.3 °C 55.2 °F /  12.9 °C 29.92in /  1013.1hPa NE 1.0mph /  1.6km/h 4.0mph /  6.4km/h 80% 0.00in /  0mm
11:09 61.7 °F /  16.5 °C 56.2 °F /  13.4 °C 29.92in /  1013.1hPa East 2.0mph /  3.2km/h 2.0mph /  3.2km/h 82% 0.00in /  0mm
11:14 62.0 °F /  16.7 °C 55.4 °F /  13 °C 29.92in /  1013.1hPa Calm   3.0mph /  4.8km/h 79% 0.00in /  0mm
11:15 62.0 °F /  16.7 °C 55.4 °F /  13 °C 29.92in /  1013.1hPa Calm   3.0mph /  4.8km/h 79% 0.00in /  0mm
11:20 62.7 °F /  17.1 °C 56.8 °F /  13.8 °C 29.92in /  1013.1hPa Calm   3.0mph /  4.8km/h 81% 0.00in /  0mm
11:25 63.2 °F /  17.3 °C 56.2 °F /  13.4 °C 29.92in /  1013.1hPa SSE 2.0mph /  3.2km/h 3.0mph /  4.8km/h 78% 0.00in /  0mm
11:30 63.0 °F /  17.2 °C 55.7 °F /  13.2 °C 29.92in /  1013.1hPa East 1.0mph /  1.6km/h 4.0mph /  6.4km/h 77% 0.00in /  0mm
11:34 63.3 °F /  17.4 °C 56.3 °F /  13.5 °C 29.92in /  1013.1hPa South 3.0mph /  4.8km/h 3.0mph /  4.8km/h 78% 0.00in /  0mm
11:35 63.4 °F /  17.4 °C 56.1 °F /  13.4 °C 29.92in /  1013.1hPa SSE 3.0mph /  4.8km/h 3.0mph /  4.8km/h 77% 0.00in /  0mm
11:40 63.9 °F /  17.7 °C 55.8 °F /  13.2 °C 29.92in /  1013.1hPa South 2.0mph /  3.2km/h 3.0mph /  4.8km/h 75% 0.00in /  0mm
11:45 64.3 °F /  17.9 °C 57.0 °F /  13.9 °C 29.92in /  1013.1hPa SE 2.0mph /  3.2km/h 2.0mph /  3.2km/h 77% 0.00in /  0mm
11:50 64.4 °F /  18 °C 56.3 °F /  13.5 °C 29.92in /  1013.1hPa South 2.0mph /  3.2km/h 4.0mph /  6.4km/h 75% 0.00in /  0mm
11:51 64.4 °F /  18 °C 56.3 °F /  13.5 °C 29.92in /  1013.1hPa SSW 2.0mph /  3.2km/h 4.0mph /  6.4km/h 75% 0.00in /  0mm
11:52 64.4 °F /  18 °C 55.9 °F /  13.3 °C 29.92in /  1013.1hPa SE 1.0mph /  1.6km/h 2.0mph /  3.2km/h 74% 0.00in /  0mm
11:55 64.5 °F /  18.1 °C 56.0 °F /  13.3 °C 29.92in /  1013.1hPa SW 2.0mph /  3.2km/h 4.0mph /  6.4km/h 74% 0.00in /  0mm
11:56 64.5 °F /  18.1 °C 56.0 °F /  13.3 °C 29.92in /  1013.1hPa SW 2.0mph /  3.2km/h 4.0mph /  6.4km/h 74% 0.00in /  0mm
11:57 64.4 °F /  18 °C 55.9 °F /  13.3 °C 29.92in /  1013.1hPa WSW 2.0mph /  3.2km/h 4.0mph /  6.4km/h 74% 0.00in /  0mm
11:58 64.3 °F /  17.9 °C 56.2 °F /  13.4 °C 29.92in /  1013.1hPa SSW 1.0mph /  1.6km/h 3.0mph /  4.8km/h 75% 0.00in /  0mm
12:02 64.6 °F /  18.1 °C 56.5 °F /  13.6 °C 29.92in /  1013.1hPa Calm   1.0mph /  1.6km/h 75% 0.00in /  0mm
12:07 65.0 °F /  18.3 °C 56.9 °F /  13.8 °C 29.92in /  1013.1hPa Calm   3.0mph /  4.8km/h 75% 0.00in /  0mm
12:12 64.6 °F /  18.1 °C 56.5 °F /  13.6 °C 29.92in /  1013.1hPa North 2.0mph /  3.2km/h 4.0mph /  6.4km/h 75% 0.00in /  0mm
12:17 64.2 °F /  17.9 °C 56.5 °F /  13.6 °C 29.92in /  1013.1hPa ENE 3.0mph /  4.8km/h 4.0mph /  6.4km/h 76% 0.00in /  0mm
12:22 64.4 °F /  18 °C 56.7 °F /  13.7 °C 29.92in /  1013.1hPa North 1.0mph /  1.6km/h 2.0mph /  3.2km/h 76% 0.00in /  0mm
12:27 64.8 °F /  18.2 °C 57.1 °F /  13.9 °C 29.92in /  1013.1hPa East 3.0mph /  4.8km/h 3.0mph /  4.8km/h 76% 0.00in /  0mm
12:28 64.8 °F /  18.2 °C 57.1 °F /  13.9 °C 29.92in /  1013.1hPa East 2.0mph /  3.2km/h 3.0mph /  4.8km/h 76% 0.00in /  0mm
12:29 64.8 °F /  18.2 °C 56.7 °F /  13.7 °C 29.92in /  1013.1hPa ENE 1.0mph /  1.6km/h 3.0mph /  4.8km/h 75% 0.00in /  0mm
12:32 64.7 °F /  18.2 °C 56.6 °F /  13.7 °C 29.92in /  1013.1hPa ESE 4.0mph /  6.4km/h 4.0mph /  6.4km/h 75% 0.00in /  0mm
12:33 64.7 °F /  18.2 °C 56.6 °F /  13.7 °C 29.92in /  1013.1hPa East 3.0mph /  4.8km/h 4.0mph /  6.4km/h 75% 0.00in /  0mm
12:36 64.7 °F /  18.2 °C 57.0 °F /  13.9 °C 29.92in /  1013.1hPa East 2.0mph /  3.2km/h 4.0mph /  6.4km/h 76% 0.00in /  0mm
12:41 65.1 °F /  18.4 °C 57.0 °F /  13.9 °C 29.92in /  1013.1hPa Calm   2.0mph /  3.2km/h 75% 0.00in /  0mm
12:42 65.1 °F /  18.4 °C 57.0 °F /  13.9 °C 29.92in /  1013.1hPa Calm   2.0mph /  3.2km/h 75% 0.00in /  0mm
12:47 65.8 °F /  18.8 °C 57.7 °F /  14.3 °C 29.92in /  1013.1hPa WSW 2.0mph /  3.2km/h 2.0mph /  3.2km/h 75% 0.00in /  0mm
12:52 66.0 °F /  18.9 °C 57.9 °F /  14.4 °C 29.91in /  1012.8hPa NW 3.0mph /  4.8km/h 4.0mph /  6.4km/h 75% 0.00in /  0mm
12:53 66.0 °F /  18.9 °C 57.1 °F /  13.9 °C 29.92in /  1013.1hPa WNW 4.0mph /  6.4km/h 5.0mph /  8km/h 73% 0.00in /  0mm
12:57 65.6 °F /  18.7 °C 57.5 °F /  14.2 °C 29.92in /  1013.1hPa WNW 2.0mph /  3.2km/h 6.0mph /  9.7km/h 75% 0.00in /  0mm
12:59 65.5 °F /  18.6 °C 57.4 °F /  14.1 °C 29.92in /  1013.1hPa Calm   4.0mph /  6.4km/h 75% 0.00in /  0mm
13:02 65.8 °F /  18.8 °C 57.7 °F /  14.3 °C 29.92in /  1013.1hPa NNW 3.0mph /  4.8km/h 5.0mph /  8km/h 75% 0.00in /  0mm
13:08 65.9 °F /  18.8 °C 58.1 °F /  14.5 °C 29.92in /  1013.1hPa NNW 2.0mph /  3.2km/h 3.0mph /  4.8km/h 76% 0.00in /  0mm
13:13 66.0 °F /  18.9 °C 57.1 °F /  13.9 °C 29.92in /  1013.1hPa WNW 2.0mph /  3.2km/h 5.0mph /  8km/h 73% 0.00in /  0mm
13:18 66.2 °F /  19 °C 59.2 °F /  15.1 °C 29.92in /  1013.1hPa NW 3.0mph /  4.8km/h 5.0mph /  8km/h 78% 0.00in /  0mm
13:23 66.1 °F /  18.9 °C 57.6 °F /  14.2 °C 29.92in /  1013.1hPa West 3.0mph /  4.8km/h 4.0mph /  6.4km/h 74% 0.00in /  0mm
13:28 65.9 °F /  18.8 °C 57.4 °F /  14.1 °C 29.92in /  1013.1hPa West 3.0mph /  4.8km/h 6.0mph /  9.7km/h 74% 0.00in /  0mm
13:29 65.8 °F /  18.8 °C 56.9 °F /  13.8 °C 29.92in /  1013.1hPa WNW 3.0mph /  4.8km/h 6.0mph /  9.7km/h 73% 0.00in /  0mm
13:33 65.6 °F /  18.7 °C 56.7 °F /  13.7 °C 29.92in /  1013.1hPa NW 1.0mph /  1.6km/h 5.0mph /  8km/h 73% 0.00in /  0mm
13:34 65.7 °F /  18.7 °C 58.3 °F /  14.6 °C 29.92in /  1013.1hPa WNW 3.0mph /  4.8km/h 5.0mph /  8km/h 77% 0.00in /  0mm
13:36 65.6 °F /  18.7 °C 57.1 °F /  13.9 °C 29.92in /  1013.1hPa Calm   4.0mph /  6.4km/h 74% 0.00in /  0mm
13:40 65.9 °F /  18.8 °C 57.8 °F /  14.3 °C 29.92in /  1013.1hPa West 2.0mph /  3.2km/h 6.0mph /  9.7km/h 75% 0.00in /  0mm
13:41 65.9 °F /  18.8 °C 57.8 °F /  14.3 °C 29.92in /  1013.1hPa WSW 4.0mph /  6.4km/h 7.0mph /  11.3km/h 75% 0.00in /  0mm
13:46 65.7 °F /  18.7 °C 58.3 °F /  14.6 °C 29.92in /  1013.1hPa West 3.0mph /  4.8km/h 7.0mph /  11.3km/h 77% 0.00in /  0mm
13:51 65.6 °F /  18.7 °C 57.5 °F /  14.2 °C 29.92in /  1013.1hPa WSW 3.0mph /  4.8km/h 6.0mph /  9.7km/h 75% 0.00in /  0mm
13:52 65.6 °F /  18.7 °C 57.1 °F /  13.9 °C 29.92in /  1013.1hPa West 2.0mph /  3.2km/h 6.0mph /  9.7km/h 74% 0.00in /  0mm
13:54 65.8 °F /  18.8 °C 57.7 °F /  14.3 °C 29.92in /  1013.1hPa WNW 2.0mph /  3.2km/h 4.0mph /  6.4km/h 75% 0.00in /  0mm
13:55 65.8 °F /  18.8 °C 57.7 °F /  14.3 °C 29.92in /  1013.1hPa West 2.0mph /  3.2km/h 4.0mph /  6.4km/h 75% 0.00in /  0mm
13:57 65.8 °F /  18.8 °C 57.7 °F /  14.3 °C 29.92in /  1013.1hPa West 2.0mph /  3.2km/h 5.0mph /  8km/h 75% 0.00in /  0mm
14:00 66.1 °F /  18.9 °C 58.0 °F /  14.4 °C 29.92in /  1013.1hPa NW 2.0mph /  3.2km/h 4.0mph /  6.4km/h 75% 0.00in /  0mm
14:05 66.3 °F /  19.1 °C 58.5 °F /  14.7 °C 29.92in /  1013.1hPa West 3.0mph /  4.8km/h 6.0mph /  9.7km/h 76% 0.00in /  0mm
14:10 66.4 °F /  19.1 °C 57.9 °F /  14.4 °C 29.92in /  1013.1hPa WNW 5.0mph /  8km/h 5.0mph /  8km/h 74% 0.00in /  0mm
14:15 66.1 °F /  18.9 °C 57.2 °F /  14 °C 29.91in /  1012.8hPa Calm   4.0mph /  6.4km/h 73% 0.00in /  0mm
14:20 66.6 °F /  19.2 °C 57.7 °F /  14.3 °C 29.91in /  1012.8hPa Calm   3.0mph /  4.8km/h 73% 0.00in /  0mm
14:25 67.0 °F /  19.4 °C 59.2 °F /  15.1 °C 29.91in /  1012.8hPa WSW 2.0mph /  3.2km/h 4.0mph /  6.4km/h 76% 0.00in /  0mm
14:26 67.0 °F /  19.4 °C 59.2 °F /  15.1 °C 29.91in /  1012.8hPa WSW 2.0mph /  3.2km/h 4.0mph /  6.4km/h 76% 0.00in /  0mm
14:31 67.0 °F /  19.4 °C 58.1 °F /  14.5 °C 29.91in /  1012.8hPa SW 2.0mph /  3.2km/h 5.0mph /  8km/h 73% 0.00in /  0mm
14:36 67.4 °F /  19.7 °C 58.1 °F /  14.5 °C 29.91in /  1012.8hPa East 2.0mph /  3.2km/h 7.0mph /  11.3km/h 72% 0.00in /  0mm
14:41 67.7 °F /  19.8 °C 58.0 °F /  14.4 °C 29.91in /  1012.8hPa SSW 1.0mph /  1.6km/h 3.0mph /  4.8km/h 71% 0.00in /  0mm
14:42 67.8 °F /  19.9 °C 58.1 °F /  14.5 °C 29.91in /  1012.8hPa SW 2.0mph /  3.2km/h 3.0mph /  4.8km/h 71% 0.00in /  0mm
14:47 67.8 °F /  19.9 °C 57.7 °F /  14.3 °C 29.90in /  1012.4hPa West 2.0mph /  3.2km/h 6.0mph /  9.7km/h 70% 0.00in /  0mm
14:52 68.3 °F /  20.2 °C 58.5 °F /  14.7 °C 29.90in /  1012.4hPa West 1.0mph /  1.6km/h 3.0mph /  4.8km/h 71% 0.00in /  0mm
14:56 68.6 °F /  20.3 °C 58.4 °F /  14.7 °C 29.90in /  1012.4hPa SSW 5.0mph /  8km/h 7.0mph /  11.3km/h 70% 0.00in /  0mm
14:58 68.5 °F /  20.3 °C 57.9 °F /  14.4 °C 29.90in /  1012.4hPa SW 3.0mph /  4.8km/h 7.0mph /  11.3km/h 69% 0.00in /  0mm
15:01 69.0 °F /  20.6 °C 59.6 °F /  15.3 °C 29.90in /  1012.4hPa NNW 2.0mph /  3.2km/h 4.0mph /  6.4km/h 72% 0.00in /  0mm
15:06 69.3 °F /  20.7 °C 59.5 °F /  15.3 °C 29.90in /  1012.4hPa WNW 6.0mph /  9.7km/h 6.0mph /  9.7km/h 71% 0.00in /  0mm
15:12 69.1 °F /  20.6 °C 58.5 °F /  14.7 °C 29.90in /  1012.4hPa WNW 2.0mph /  3.2km/h 4.0mph /  6.4km/h 69% 0.00in /  0mm
15:17 68.9 °F /  20.5 °C 58.7 °F /  14.8 °C 29.90in /  1012.4hPa SW 1.0mph /  1.6km/h 3.0mph /  4.8km/h 70% 0.00in /  0mm
15:22 70.0 °F /  21.1 °C 60.2 °F /  15.7 °C 29.89in /  1012.1hPa Calm   1.0mph /  1.6km/h 71% 0.00in /  0mm
15:27 70.0 °F /  21.1 °C 59.8 °F /  15.4 °C 29.89in /  1012.1hPa West 6.0mph /  9.7km/h 8.0mph /  12.9km/h 70% 0.00in /  0mm
15:32 69.9 °F /  21.1 °C 59.3 °F /  15.2 °C 29.89in /  1012.1hPa SW 2.0mph /  3.2km/h 5.0mph /  8km/h 69% 0.00in /  0mm
15:33 69.9 °F /  21.1 °C 58.0 °F /  14.4 °C 29.89in /  1012.1hPa SW 1.0mph /  1.6km/h 4.0mph /  6.4km/h 66% 0.00in /  0mm
15:35 70.1 °F /  21.2 °C 59.1 °F /  15.1 °C 29.89in /  1012.1hPa SSW 2.0mph /  3.2km/h 4.0mph /  6.4km/h 68% 0.00in /  0mm
15:38 70.8 °F /  21.6 °C 59.3 °F /  15.2 °C 29.89in /  1012.1hPa WNW 2.0mph /  3.2km/h 3.0mph /  4.8km/h 67% 0.00in /  0mm
15:43 70.1 °F /  21.2 °C 58.7 °F /  14.8 °C 29.89in /  1012.1hPa West 3.0mph /  4.8km/h 5.0mph /  8km/h 67% 0.00in /  0mm
15:48 69.9 °F /  21.1 °C 58.9 °F /  14.9 °C 29.89in /  1012.1hPa NNE 2.0mph /  3.2km/h 4.0mph /  6.4km/h 68% 0.00in /  0mm
15:53 69.9 °F /  21.1 °C 58.9 °F /  14.9 °C 29.88in /  1011.7hPa WNW 3.0mph /  4.8km/h 5.0mph /  8km/h 68% 0.00in /  0mm
15:58 70.2 °F /  21.2 °C 58.3 °F /  14.6 °C 29.88in /  1011.7hPa Calm   3.0mph /  4.8km/h 66% 0.00in /  0mm
16:04 70.4 °F /  21.3 °C 59.3 °F /  15.2 °C 29.88in /  1011.7hPa NNW 3.0mph /  4.8km/h 7.0mph /  11.3km/h 68% 0.00in /  0mm
16:09 70.4 °F /  21.3 °C 58.1 °F /  14.5 °C 29.88in /  1011.7hPa WNW 4.0mph /  6.4km/h 6.0mph /  9.7km/h 65% 0.00in /  0mm
16:14 70.5 °F /  21.4 °C 61.0 °F /  16.1 °C 29.88in /  1011.7hPa West 2.0mph /  3.2km/h 4.0mph /  6.4km/h 72% 0.00in /  0mm
16:19 70.9 °F /  21.6 °C 59.8 °F /  15.4 °C 29.88in /  1011.7hPa SW 3.0mph /  4.8km/h 4.0mph /  6.4km/h 68% 0.00in /  0mm
16:24 71.6 °F /  22 °C 60.5 °F /  15.8 °C 29.87in /  1011.4hPa SSW 4.0mph /  6.4km/h 5.0mph /  8km/h 68% 0.00in /  0mm
16:29 71.6 °F /  22 °C 59.2 °F /  15.1 °C 29.87in /  1011.4hPa WNW 1.0mph /  1.6km/h 3.0mph /  4.8km/h 65% 0.00in /  0mm
16:30 71.6 °F /  22 °C 59.2 °F /  15.1 °C 29.87in /  1011.4hPa WNW 1.0mph /  1.6km/h 3.0mph /  4.8km/h 65% 0.00in /  0mm
16:35 71.6 °F /  22 °C 58.8 °F /  14.9 °C 29.87in /  1011.4hPa Calm   5.0mph /  8km/h 64% 0.00in /  0mm
16:40 71.5 °F /  21.9 °C 59.1 °F /  15.1 °C 29.87in /  1011.4hPa ESE 3.0mph /  4.8km/h 4.0mph /  6.4km/h 65% 0.00in /  0mm
16:45 71.9 °F /  22.2 °C 60.4 °F /  15.8 °C 29.86in /  1011.1hPa NW 2.0mph /  3.2km/h 2.0mph /  3.2km/h 67% 0.00in /  0mm
16:50 71.9 °F /  22.2 °C 60.4 °F /  15.8 °C 29.87in /  1011.4hPa North 4.0mph /  6.4km/h 5.0mph /  8km/h 67% 0.00in /  0mm
16:51 71.9 °F /  22.2 °C 60.8 °F /  16 °C 29.87in /  1011.4hPa NW 2.0mph /  3.2km/h 5.0mph /  8km/h 68% 0.00in /  0mm
16:52 71.9 °F /  22.2 °C 60.8 °F /  16 °C 29.87in /  1011.4hPa North 6.0mph /  9.7km/h 6.0mph /  9.7km/h 68% 0.00in /  0mm
16:53 72.0 °F /  22.2 °C 59.6 °F /  15.3 °C 29.87in /  1011.4hPa WSW 1.0mph /  1.6km/h 6.0mph /  9.7km/h 65% 0.00in /  0mm
16:56 72.1 °F /  22.3 °C 59.3 °F /  15.2 °C 29.87in /  1011.4hPa WNW 2.0mph /  3.2km/h 4.0mph /  6.4km/h 64% 0.00in /  0mm
16:59 72.1 °F /  22.3 °C 58.8 °F /  14.9 °C 29.87in /  1011.4hPa NNW 1.0mph /  1.6km/h 3.0mph /  4.8km/h 63% 0.00in /  0mm
17:04 71.9 °F /  22.2 °C 59.5 °F /  15.3 °C 29.87in /  1011.4hPa NNE 4.0mph /  6.4km/h 6.0mph /  9.7km/h 65% 0.00in /  0mm
17:09 71.6 °F /  22 °C 59.7 °F /  15.4 °C 29.87in /  1011.4hPa North 4.0mph /  6.4km/h 6.0mph /  9.7km/h 66% 0.00in /  0mm
17:12 71.6 °F /  22 °C 60.5 °F /  15.8 °C 29.87in /  1011.4hPa NNW 3.0mph /  4.8km/h 5.0mph /  8km/h 68% 0.00in /  0mm
17:14 71.8 °F /  22.1 °C 61.5 °F /  16.4 °C 29.87in /  1011.4hPa NNW 3.0mph /  4.8km/h 4.0mph /  6.4km/h 70% 0.00in /  0mm
17:19 72.1 °F /  22.3 °C 60.5 °F /  15.8 °C 29.86in /  1011.1hPa Calm   3.0mph /  4.8km/h 67% 0.00in /  0mm
17:24 73.0 °F /  22.8 °C 60.5 °F /  15.8 °C 29.86in /  1011.1hPa SSE 3.0mph /  4.8km/h 3.0mph /  4.8km/h 65% 0.00in /  0mm
17:29 73.4 °F /  23 °C 60.9 °F /  16.1 °C 29.86in /  1011.1hPa SSW 3.0mph /  4.8km/h 3.0mph /  4.8km/h 65% 0.00in /  0mm
17:30 73.4 °F /  23 °C 60.9 °F /  16.1 °C 29.86in /  1011.1hPa SSE 2.0mph /  3.2km/h 3.0mph /  4.8km/h 65% 0.00in /  0mm
17:33 73.4 °F /  23 °C 59.6 °F /  15.3 °C 29.85in /  1010.7hPa SW 2.0mph /  3.2km/h 4.0mph /  6.4km/h 62% 0.00in /  0mm
17:36 73.4 °F /  23 °C 60.9 °F /  16.1 °C 29.85in /  1010.7hPa East 2.0mph /  3.2km/h 4.0mph /  6.4km/h 65% 0.00in /  0mm
17:38 73.5 °F /  23.1 °C 60.2 °F /  15.7 °C 29.85in /  1010.7hPa NNE 1.0mph /  1.6km/h 2.0mph /  3.2km/h 63% 0.00in /  0mm
17:43 73.8 °F /  23.2 °C 60.0 °F /  15.6 °C 29.86in /  1011.1hPa South 3.0mph /  4.8km/h 4.0mph /  6.4km/h 62% 0.00in /  0mm
17:48 73.5 °F /  23.1 °C 61.0 °F /  16.1 °C 29.85in /  1010.7hPa WSW 2.0mph /  3.2km/h 5.0mph /  8km/h 65% 0.00in /  0mm
17:53 73.9 °F /  23.3 °C 60.5 °F /  15.8 °C 29.86in /  1011.1hPa WSW 3.0mph /  4.8km/h 5.0mph /  8km/h 63% 0.00in /  0mm
17:54 73.8 °F /  23.2 °C 61.3 °F /  16.3 °C 29.85in /  1010.7hPa SSW 4.0mph /  6.4km/h 5.0mph /  8km/h 65% 0.00in /  0mm
17:58 73.5 °F /  23.1 °C 59.7 °F /  15.4 °C 29.85in /  1010.7hPa SSW 3.0mph /  4.8km/h 5.0mph /  8km/h 62% 0.00in /  0mm
18:00 73.4 °F /  23 °C 59.6 °F /  15.3 °C 29.85in /  1010.7hPa SW 1.0mph /  1.6km/h 4.0mph /  6.4km/h 62% 0.00in /  0mm
18:03 73.7 °F /  23.2 °C 59.9 °F /  15.5 °C 29.85in /  1010.7hPa WSW 1.0mph /  1.6km/h 2.0mph /  3.2km/h 62% 0.00in /  0mm
18:05 74.0 °F /  23.3 °C 60.6 °F /  15.9 °C 29.85in /  1010.7hPa NNW 2.0mph /  3.2km/h 2.0mph /  3.2km/h 63% 0.00in /  0mm
18:10 74.1 °F /  23.4 °C 60.3 °F /  15.7 °C 29.85in /  1010.7hPa SSE 2.0mph /  3.2km/h 4.0mph /  6.4km/h 62% 0.00in /  0mm
18:15 74.6 °F /  23.7 °C 61.2 °F /  16.2 °C 29.85in /  1010.7hPa NNW 3.0mph /  4.8km/h 4.0mph /  6.4km/h 63% 0.00in /  0mm
18:20 73.9 °F /  23.3 °C 60.1 °F /  15.6 °C 29.85in /  1010.7hPa WSW 2.0mph /  3.2km/h 4.0mph /  6.4km/h 62% 0.00in /  0mm
18:25 73.7 °F /  23.2 °C 60.8 °F /  16 °C 29.85in /  1010.7hPa WSW 2.0mph /  3.2km/h 4.0mph /  6.4km/h 64% 0.00in /  0mm
18:26 73.7 °F /  23.2 °C 59.9 °F /  15.5 °C 29.85in /  1010.7hPa WSW 1.0mph /  1.6km/h 4.0mph /  6.4km/h 62% 0.00in /  0mm
18:31 74.2 °F /  23.4 °C 60.8 °F /  16 °C 29.85in /  1010.7hPa SW 3.0mph /  4.8km/h 4.0mph /  6.4km/h 63% 0.00in /  0mm
18:32 74.1 °F /  23.4 °C 60.3 °F /  15.7 °C 29.85in /  1010.7hPa West 2.0mph /  3.2km/h 5.0mph /  8km/h 62% 0.00in /  0mm
18:33 74.0 °F /  23.3 °C 59.7 °F /  15.4 °C 29.85in /  1010.7hPa SSW 1.0mph /  1.6km/h 5.0mph /  8km/h 61% 0.00in /  0mm
18:38 74.1 °F /  23.4 °C 59.8 °F /  15.4 °C 29.85in /  1010.7hPa West 2.0mph /  3.2km/h 2.0mph /  3.2km/h 61% 0.00in /  0mm
18:43 74.1 °F /  23.4 °C 59.8 °F /  15.4 °C 29.85in /  1010.7hPa West 2.0mph /  3.2km/h 2.0mph /  3.2km/h 61% 0.00in /  0mm
18:48 74.1 °F /  23.4 °C 59.8 °F /  15.4 °C 29.85in /  1010.7hPa West 2.0mph /  3.2km/h 2.0mph /  3.2km/h 61% 0.00in /  0mm
18:53 74.1 °F /  23.4 °C 59.8 °F /  15.4 °C 29.85in /  1010.7hPa West 2.0mph /  3.2km/h 2.0mph /  3.2km/h 61% 0.00in /  0mm
18:54 74.1 °F /  23.4 °C 59.8 °F /  15.4 °C 29.85in /  1010.7hPa West 2.0mph /  3.2km/h 2.0mph /  3.2km/h 61% 0.00in /  0mm
18:58 74.1 °F /  23.4 °C 59.8 °F /  15.4 °C 29.85in /  1010.7hPa West 2.0mph /  3.2km/h 2.0mph /  3.2km/h 61% 0.00in /  0mm
19:03 74.1 °F /  23.4 °C 59.8 °F /  15.4 °C 29.85in /  1010.7hPa West 2.0mph /  3.2km/h 2.0mph /  3.2km/h 61% 0.00in /  0mm
19:04 74.1 °F /  23.4 °C 59.8 °F /  15.4 °C 29.85in /  1010.7hPa West 2.0mph /  3.2km/h 2.0mph /  3.2km/h 61% 0.00in /  0mm
19:09 74.1 °F /  23.4 °C 59.8 °F /  15.4 °C 29.85in /  1010.7hPa West 2.0mph /  3.2km/h 2.0mph /  3.2km/h 61% 0.00in /  0mm
19:14 74.1 °F /  23.4 °C 59.8 °F /  15.4 °C 29.85in /  1010.7hPa West 2.0mph /  3.2km/h 2.0mph /  3.2km/h 61% 0.00in /  0mm
19:19 74.1 °F /  23.4 °C 59.8 °F /  15.4 °C 29.85in /  1010.7hPa West 2.0mph /  3.2km/h 2.0mph /  3.2km/h 61% 0.00in /  0mm
19:24 74.1 °F /  23.4 °C 59.8 °F /  15.4 °C 29.85in /  1010.7hPa West 2.0mph /  3.2km/h 2.0mph /  3.2km/h 61% 0.00in /  0mm
19:29 74.1 °F /  23.4 °C 59.8 °F /  15.4 °C 29.85in /  1010.7hPa West 2.0mph /  3.2km/h 2.0mph /  3.2km/h 61% 0.00in /  0mm
19:31 74.1 °F /  23.4 °C 59.8 °F /  15.4 °C 29.85in /  1010.7hPa West 2.0mph /  3.2km/h 2.0mph /  3.2km/h 61% 0.00in /  0mm
19:34 74.1 °F /  23.4 °C 59.8 °F /  15.4 °C 29.85in /  1010.7hPa West 2.0mph /  3.2km/h 2.0mph /  3.2km/h 61% 0.00in /  0mm
19:36 74.1 °F /  23.4 °C 59.8 °F /  15.4 °C 29.85in /  1010.7hPa West 2.0mph /  3.2km/h 2.0mph /  3.2km/h 61% 0.00in /  0mm
19:37 74.1 °F /  23.4 °C 59.8 °F /  15.4 °C 29.85in /  1010.7hPa West 2.0mph /  3.2km/h 2.0mph /  3.2km/h 61% 0.00in /  0mm
19:41 74.1 °F /  23.4 °C 59.8 °F /  15.4 °C 29.85in /  1010.7hPa West 2.0mph /  3.2km/h 2.0mph /  3.2km/h 61% 0.00in /  0mm
19:46 74.1 °F /  23.4 °C 59.8 °F /  15.4 °C 29.85in /  1010.7hPa West 2.0mph /  3.2km/h 2.0mph /  3.2km/h 61% 0.00in /  0mm
19:51 74.1 °F /  23.4 °C 59.8 °F /  15.4 °C 29.85in /  1010.7hPa West 2.0mph /  3.2km/h 2.0mph /  3.2km/h 61% 0.00in /  0mm
19:53 74.1 °F /  23.4 °C 59.8 °F /  15.4 °C 29.85in /  1010.7hPa West 2.0mph /  3.2km/h 2.0mph /  3.2km/h 61% 0.00in /  0mm
19:57 74.1 °F /  23.4 °C 59.8 °F /  15.4 °C 29.85in /  1010.7hPa West 2.0mph /  3.2km/h 2.0mph /  3.2km/h 61% 0.00in /  0mm
19:58 74.1 °F /  23.4 °C 59.8 °F /  15.4 °C 29.85in /  1010.7hPa West 2.0mph /  3.2km/h 2.0mph /  3.2km/h 61% 0.00in /  0mm
20:03 74.1 °F /  23.4 °C 59.8 °F /  15.4 °C 29.85in /  1010.7hPa West 2.0mph /  3.2km/h 2.0mph /  3.2km/h 61% 0.00in /  0mm
20:08 74.1 °F /  23.4 °C 59.8 °F /  15.4 °C 29.85in /  1010.7hPa West 2.0mph /  3.2km/h 2.0mph /  3.2km/h 61% 0.00in /  0mm
20:13 74.1 °F /  23.4 °C 59.8 °F /  15.4 °C 29.85in /  1010.7hPa West 2.0mph /  3.2km/h 2.0mph /  3.2km/h 61% 0.00in /  0mm
20:14 74.1 °F /  23.4 °C 59.8 °F /  15.4 °C 29.85in /  1010.7hPa West 2.0mph /  3.2km/h 2.0mph /  3.2km/h 61% 0.00in /  0mm
20:19 74.1 °F /  23.4 °C 59.8 °F /  15.4 °C 29.85in /  1010.7hPa West 2.0mph /  3.2km/h 2.0mph /  3.2km/h 61% 0.00in /  0mm
20:24 74.1 °F /  23.4 °C 59.8 °F /  15.4 °C 29.85in /  1010.7hPa West 2.0mph /  3.2km/h 2.0mph /  3.2km/h 61% 0.00in /  0mm
20:29 74.1 °F /  23.4 °C 59.8 °F /  15.4 °C 29.85in /  1010.7hPa West 2.0mph /  3.2km/h 2.0mph /  3.2km/h 61% 0.00in /  0mm
20:30 74.1 °F /  23.4 °C 59.8 °F /  15.4 °C 29.85in /  1010.7hPa West 2.0mph /  3.2km/h 2.0mph /  3.2km/h 61% 0.00in /  0mm
20:34 74.1 °F /  23.4 °C 59.8 °F /  15.4 °C 29.85in /  1010.7hPa West 2.0mph /  3.2km/h 2.0mph /  3.2km/h 61% 0.00in /  0mm
20:35 74.1 °F /  23.4 °C 59.8 °F /  15.4 °C 29.85in /  1010.7hPa West 2.0mph /  3.2km/h 2.0mph /  3.2km/h 61% 0.00in /  0mm
20:40 74.1 °F /  23.4 °C 59.8 °F /  15.4 °C 29.85in /  1010.7hPa West 2.0mph /  3.2km/h 2.0mph /  3.2km/h 61% 0.00in /  0mm
20:45 74.1 °F /  23.4 °C 59.8 °F /  15.4 °C 29.85in /  1010.7hPa West 2.0mph /  3.2km/h 2.0mph /  3.2km/h 61% 0.00in /  0mm
20:50 74.1 °F /  23.4 °C 59.8 °F /  15.4 °C 29.85in /  1010.7hPa West 2.0mph /  3.2km/h 2.0mph /  3.2km/h 61% 0.00in /  0mm
20:51 74.1 °F /  23.4 °C 59.8 °F /  15.4 °C 29.85in /  1010.7hPa West 2.0mph /  3.2km/h 2.0mph /  3.2km/h 61% 0.00in /  0mm
20:55 74.1 °F /  23.4 °C 59.8 °F /  15.4 °C 29.85in /  1010.7hPa West 2.0mph /  3.2km/h 2.0mph /  3.2km/h 61% 0.00in /  0mm
20:56 74.1 °F /  23.4 °C 59.8 °F /  15.4 °C 29.85in /  1010.7hPa West 2.0mph /  3.2km/h 2.0mph /  3.2km/h 61% 0.00in /  0mm
20:59 74.1 °F /  23.4 °C 59.8 °F /  15.4 °C 29.85in /  1010.7hPa West 2.0mph /  3.2km/h 2.0mph /  3.2km/h 61% 0.00in /  0mm
21:04 74.1 °F /  23.4 °C 59.8 °F /  15.4 °C 29.85in /  1010.7hPa West 2.0mph /  3.2km/h 2.0mph /  3.2km/h 61% 0.00in /  0mm
21:09 74.1 °F /  23.4 °C 59.8 °F /  15.4 °C 29.85in /  1010.7hPa West 2.0mph /  3.2km/h 2.0mph /  3.2km/h 61% 0.00in /  0mm
21:15 74.1 °F /  23.4 °C 59.8 °F /  15.4 °C 29.85in /  1010.7hPa West 2.0mph /  3.2km/h 2.0mph /  3.2km/h 61% 0.00in /  0mm
21:20 74.1 °F /  23.4 °C 59.8 °F /  15.4 °C 29.85in /  1010.7hPa West 2.0mph /  3.2km/h 2.0mph /  3.2km/h 61% 0.00in /  0mm
21:21 74.1 °F /  23.4 °C 59.8 °F /  15.4 °C 29.85in /  1010.7hPa West 2.0mph /  3.2km/h 2.0mph /  3.2km/h 61% 0.00in /  0mm
21:26 74.1 °F /  23.4 °C 59.8 °F /  15.4 °C 29.85in /  1010.7hPa West 2.0mph /  3.2km/h 2.0mph /  3.2km/h 61% 0.00in /  0mm
21:27 74.1 °F /  23.4 °C 59.8 °F /  15.4 °C 29.85in /  1010.7hPa West 2.0mph /  3.2km/h 2.0mph /  3.2km/h 61% 0.00in /  0mm
21:31 74.1 °F /  23.4 °C 59.8 °F /  15.4 °C 29.85in /  1010.7hPa West 2.0mph /  3.2km/h 2.0mph /  3.2km/h 61% 0.00in /  0mm
21:32 74.1 °F /  23.4 °C 59.8 °F /  15.4 °C 29.85in /  1010.7hPa West 2.0mph /  3.2km/h 2.0mph /  3.2km/h 61% 0.00in /  0mm
21:36 74.1 °F /  23.4 °C 59.8 °F /  15.4 °C 29.85in /  1010.7hPa West 2.0mph /  3.2km/h 2.0mph /  3.2km/h 61% 0.00in /  0mm
21:37 74.1 °F /  23.4 °C 59.8 °F /  15.4 °C 29.85in /  1010.7hPa West 2.0mph /  3.2km/h 2.0mph /  3.2km/h 61% 0.00in /  0mm
21:42 74.1 °F /  23.4 °C 59.8 °F /  15.4 °C 29.85in /  1010.7hPa West 2.0mph /  3.2km/h 2.0mph /  3.2km/h 61% 0.00in /  0mm
21:47 74.1 °F /  23.4 °C 59.8 °F /  15.4 °C 29.85in /  1010.7hPa West 2.0mph /  3.2km/h 2.0mph /  3.2km/h 61% 0.00in /  0mm
21:52 74.1 °F /  23.4 °C 59.8 °F /  15.4 °C 29.85in /  1010.7hPa West 2.0mph /  3.2km/h 2.0mph /  3.2km/h 61% 0.00in /  0mm
21:53 74.1 °F /  23.4 °C 59.8 °F /  15.4 °C 29.85in /  1010.7hPa West 2.0mph /  3.2km/h 2.0mph /  3.2km/h 61% 0.00in /  0mm
21:54 74.1 °F /  23.4 °C 59.8 °F /  15.4 °C 29.85in /  1010.7hPa West 2.0mph /  3.2km/h 2.0mph /  3.2km/h 61% 0.00in /  0mm
21:58 74.1 °F /  23.4 °C 59.8 °F /  15.4 °C 29.85in /  1010.7hPa West 2.0mph /  3.2km/h 2.0mph /  3.2km/h 61% 0.00in /  0mm
22:03 74.1 °F /  23.4 °C 59.8 °F /  15.4 °C 29.85in /  1010.7hPa West 2.0mph /  3.2km/h 2.0mph /  3.2km/h 61% 0.00in /  0mm
22:08 74.1 °F /  23.4 °C 59.8 °F /  15.4 °C 29.85in /  1010.7hPa West 2.0mph /  3.2km/h 2.0mph /  3.2km/h 61% 0.00in /  0mm
22:13 74.1 °F /  23.4 °C 59.8 °F /  15.4 °C 29.85in /  1010.7hPa West 2.0mph /  3.2km/h 2.0mph /  3.2km/h 61% 0.00in /  0mm
22:18 74.1 °F /  23.4 °C 59.8 °F /  15.4 °C 29.85in /  1010.7hPa West 2.0mph /  3.2km/h 2.0mph /  3.2km/h 61% 0.00in /  0mm
22:19 74.1 °F /  23.4 °C 59.8 °F /  15.4 °C 29.85in /  1010.7hPa West 2.0mph /  3.2km/h 2.0mph /  3.2km/h 61% 0.00in /  0mm
22:24 74.1 °F /  23.4 °C 59.8 °F /  15.4 °C 29.85in /  1010.7hPa West 2.0mph /  3.2km/h 2.0mph /  3.2km/h 61% 0.00in /  0mm
22:29 74.1 °F /  23.4 °C 59.8 °F /  15.4 °C 29.85in /  1010.7hPa West 2.0mph /  3.2km/h 2.0mph /  3.2km/h 61% 0.00in /  0mm
22:33 74.1 °F /  23.4 °C 59.8 °F /  15.4 °C 29.85in /  1010.7hPa West 2.0mph /  3.2km/h 2.0mph /  3.2km/h 61% 0.00in /  0mm
22:34 74.1 °F /  23.4 °C 59.8 °F /  15.4 °C 29.85in /  1010.7hPa West 2.0mph /  3.2km/h 2.0mph /  3.2km/h 61% 0.00in /  0mm
22:35 74.1 °F /  23.4 °C 59.8 °F /  15.4 °C 29.85in /  1010.7hPa West 2.0mph /  3.2km/h 2.0mph /  3.2km/h 61% 0.00in /  0mm
22:38 74.1 °F /  23.4 °C 59.8 °F /  15.4 °C 29.85in /  1010.7hPa West 2.0mph /  3.2km/h 2.0mph /  3.2km/h 61% 0.00in /  0mm
22:43 74.1 °F /  23.4 °C 59.8 °F /  15.4 °C 29.85in /  1010.7hPa West 2.0mph /  3.2km/h 2.0mph /  3.2km/h 61% 0.00in /  0mm
22:48 74.1 °F /  23.4 °C 59.8 °F /  15.4 °C 29.85in /  1010.7hPa West 2.0mph /  3.2km/h 2.0mph /  3.2km/h 61% 0.00in /  0mm
22:53 74.1 °F /  23.4 °C 59.8 °F /  15.4 °C 29.85in /  1010.7hPa West 2.0mph /  3.2km/h 2.0mph /  3.2km/h 61% 0.00in /  0mm
22:55 74.1 °F /  23.4 °C 59.8 °F /  15.4 °C 29.85in /  1010.7hPa West 2.0mph /  3.2km/h 2.0mph /  3.2km/h 61% 0.00in /  0mm
22:56 74.1 °F /  23.4 °C 59.8 °F /  15.4 °C 29.85in /  1010.7hPa West 2.0mph /  3.2km/h 2.0mph /  3.2km/h 61% 0.00in /  0mm
23:00 74.1 °F /  23.4 °C 59.8 °F /  15.4 °C 29.85in /  1010.7hPa West 2.0mph /  3.2km/h 2.0mph /  3.2km/h 61% 0.00in /  0mm
23:05 74.1 °F /  23.4 °C 59.8 °F /  15.4 °C 29.85in /  1010.7hPa West 2.0mph /  3.2km/h 2.0mph /  3.2km/h 61% 0.00in /  0mm
23:10 74.1 °F /  23.4 °C 59.8 °F /  15.4 °C 29.85in /  1010.7hPa West 2.0mph /  3.2km/h 2.0mph /  3.2km/h 61% 0.00in /  0mm
23:15 74.1 °F /  23.4 °C 59.8 °F /  15.4 °C 29.85in /  1010.7hPa West 2.0mph /  3.2km/h 2.0mph /  3.2km/h 61% 0.00in /  0mm
23:20 74.1 °F /  23.4 °C 59.8 °F /  15.4 °C 29.85in /  1010.7hPa West 2.0mph /  3.2km/h 2.0mph /  3.2km/h 61% 0.00in /  0mm
23:25 74.1 °F /  23.4 °C 59.8 °F /  15.4 °C 29.85in /  1010.7hPa West 2.0mph /  3.2km/h 2.0mph /  3.2km/h 61% 0.00in /  0mm
23:30 74.1 °F /  23.4 °C 59.8 °F /  15.4 °C 29.85in /  1010.7hPa West 2.0mph /  3.2km/h 2.0mph /  3.2km/h 61% 0.00in /  0mm
23:31 74.1 °F /  23.4 °C 59.8 °F /  15.4 °C 29.85in /  1010.7hPa West 2.0mph /  3.2km/h 2.0mph /  3.2km/h 61% 0.00in /  0mm
23:33 74.1 °F /  23.4 °C 59.8 °F /  15.4 °C 29.85in /  1010.7hPa West 2.0mph /  3.2km/h 2.0mph /  3.2km/h 61% 0.00in /  0mm
23:36 74.1 °F /  23.4 °C 59.8 °F /  15.4 °C 29.85in /  1010.7hPa West 2.0mph /  3.2km/h 2.0mph /  3.2km/h 61% 0.00in /  0mm
23:38 74.1 °F /  23.4 °C 59.8 °F /  15.4 °C 29.85in /  1010.7hPa West 2.0mph /  3.2km/h 2.0mph /  3.2km/h 61% 0.00in /  0mm
23:43 74.1 °F /  23.4 °C 59.8 °F /  15.4 °C 29.85in /  1010.7hPa West 2.0mph /  3.2km/h 2.0mph /  3.2km/h 61% 0.00in /  0mm
23:48 74.1 °F /  23.4 °C 59.8 °F /  15.4 °C 29.85in /  1010.7hPa West 2.0mph /  3.2km/h 2.0mph /  3.2km/h 61% 0.00in /  0mm
23:53 74.1 °F /  23.4 °C 59.8 °F /  15.4 °C 29.85in /  1010.7hPa West 2.0mph /  3.2km/h 2.0mph /  3.2km/h 61% 0.00in /  0mm
23:55 74.1 °F /  23.4 °C 59.8 °F /  15.4 °C 29.85in /  1010.7hPa West 2.0mph /  3.2km/h 2.0mph /  3.2km/h 61% 0.00in /  0mm
23:56 74.1 °F /  23.4 °C 59.8 °F /  15.4 °C 29.85in /  1010.7hPa West 2.0mph /  3.2km/h 2.0mph /  3.2km/h 61% 0.00in /  0mm
Compliments of Weather Underground